Time;durP1;ratioP1;P1;durP2;ratioP2;P2;SDS_P1;SDS_P2;PMS_P1;PMS_P2;Temp;Humidity;BMP_temperature;BMP_pressure;BME280_temperature;BME280_humidity;BME280_pressure;Samples;Min_cycle;Max_cycle;Signal;HPM_P1;HPM_P2
2022/09/17 00:02:13;;;;;;;2.20;1.80;;;;;;;9.42;74.97;98591.72;214159;1276;139959;-66
2022/09/17 00:07:17;;;;;;;1.60;1.50;;;;;;;9.38;75.20;98590.46;213805;1276;139685;-67
2022/09/17 00:12:20;;;;;;;2.10;1.90;;;;;;;9.30;75.04;98595.14;213713;1276;141111;-66
2022/09/17 00:17:22;;;;;;;2.80;1.70;;;;;;;9.26;75.34;98587.96;213222;1276;140889;-65
2022/09/17 00:22:25;;;;;;;5.60;2.30;;;;;;;9.23;75.16;98587.13;213504;1276;143279;-69
2022/09/17 00:27:28;;;;;;;3.30;2.20;;;;;;;9.20;75.68;98586.10;213478;1276;140491;-66
2022/09/17 00:32:31;;;;;;;2.00;1.80;;;;;;;9.14;75.48;98578.52;213384;1276;140991;-67
2022/09/17 00:37:34;;;;;;;1.80;1.70;;;;;;;9.04;75.75;98575.66;214081;1276;140126;-66
2022/09/17 00:42:36;;;;;;;2.60;1.60;;;;;;;8.94;75.57;98577.05;213401;1276;141274;-67
2022/09/17 00:48:06;;;;;;;2.10;2.00;;;;;;;8.79;75.98;98584.80;213791;1276;141758;-66
2022/09/17 00:53:19;;;;;;;2.10;2.00;;;;;;;8.69;76.39;98586.70;214029;1276;140440;-65
2022/09/17 00:58:25;;;;;;;1.60;1.40;;;;;;;8.67;76.43;98587.10;213183;1276;162219;-66
2022/09/17 01:03:28;;;;;;;2.30;1.70;;;;;;;8.59;76.61;98583.98;213171;1276;140846;-65
2022/09/17 01:08:52;;;;;;;2.60;1.90;;;;;;;8.56;76.80;98583.70;214454;1276;142206;-66
2022/09/17 01:14:23;;;;;;;17.70;3.80;;;;;;;8.52;76.83;98595.14;215108;1276;139937;-66
2022/09/17 01:20:02;;;;;;;2.50;2.30;;;;;;;8.53;76.94;98600.68;215931;1276;140540;-66
2022/09/17 01:25:31;;;;;;;2.60;1.90;;;;;;;8.50;77.13;98601.91;215694;1276;140052;-66
2022/09/17 01:30:58;;;;;;;6.00;2.70;;;;;;;8.44;77.03;98601.79;215795;1276;140659;-67
2022/09/17 01:36:03;;;;;;;6.20;2.60;;;;;;;8.43;77.33;98601.04;215880;1276;140362;-67
2022/09/17 01:41:40;;;;;;;1.80;1.70;;;;;;;8.42;77.22;98600.45;215087;1275;140715;-66
2022/09/17 01:46:52;;;;;;;3.20;3.00;;;;;;;8.40;77.11;98595.38;214723;1275;140162;-66
2022/09/17 01:51:56;;;;;;;10.70;3.70;;;;;;;8.34;77.48;98594.05;214334;1276;140334;-66
2022/09/17 01:57:11;;;;;;;4.00;2.60;;;;;;;8.28;77.53;98589.19;213442;1276;141208;-64
2022/09/17 02:02:44;;;;;;;4.20;2.70;;;;;;;8.22;77.72;98588.81;213650;1277;141237;-64
2022/09/17 02:08:08;;;;;;;4.40;2.90;;;;;;;8.18;77.74;98588.08;213420;1276;139810;-65
2022/09/17 02:13:19;;;;;;;3.90;2.90;;;;;;;8.16;78.04;98585.33;213811;1276;140635;-65
2022/09/17 02:18:31;;;;;;;2.00;1.90;;;;;;;8.14;78.19;98582.60;213114;1276;139581;-67
2022/09/17 02:23:40;;;;;;;3.60;2.50;;;;;;;8.08;78.06;98584.06;213041;1276;143536;-67
2022/09/17 02:28:50;;;;;;;2.70;2.50;;;;;;;8.06;78.32;98579.58;213343;1276;139976;-66
2022/09/17 02:34:00;;;;;;;3.40;2.50;;;;;;;8.02;78.66;98577.98;213946;1276;140515;-65
2022/09/17 02:39:03;;;;;;;2.00;1.80;;;;;;;7.99;78.74;98574.29;212675;1277;140696;-67
2022/09/17 02:44:14;;;;;;;3.20;3.00;;;;;;;7.96;79.01;98569.15;213329;1276;139973;-65
2022/09/17 02:49:19;;;;;;;3.40;2.40;;;;;;;7.94;78.81;98561.81;213336;1276;139771;-68
2022/09/17 02:54:49;;;;;;;4.70;2.50;;;;;;;7.91;79.35;98559.55;214182;1276;140087;-67
2022/09/17 02:59:58;;;;;;;3.70;1.90;;;;;;;7.96;78.85;98559.81;214083;1276;140005;-65
2022/09/17 03:05:03;;;;;;;2.60;1.90;;;;;;;8.00;79.15;98559.48;213560;1276;140160;-67
2022/09/17 03:10:07;;;;;;;2.40;2.20;;;;;;;7.98;79.26;98560.36;215691;1276;141231;-69
2022/09/17 03:15:09;;;;;;;5.70;2.70;;;;;;;7.99;78.95;98560.33;215328;1275;141659;-68
2022/09/17 03:20:14;;;;;;;3.10;2.20;;;;;;;8.03;79.60;98559.95;215762;1276;141047;-67
2022/09/17 03:25:17;;;;;;;2.70;2.50;;;;;;;8.05;79.01;98561.04;215807;1276;141396;-67
2022/09/17 03:30:20;;;;;;;3.20;2.90;;;;;;;8.05;78.86;98561.93;216043;1276;140940;-67
2022/09/17 03:35:23;;;;;;;4.80;2.80;;;;;;;8.07;79.10;98559.33;213946;1276;139914;-65
2022/09/17 03:40:25;;;;;;;2.30;2.10;;;;;;;8.13;79.17;98557.86;214315;1276;141726;-65
2022/09/17 03:45:28;;;;;;;2.60;2.40;;;;;;;8.19;78.93;98553.41;214225;1274;162804;-65
2022/09/17 03:50:31;;;;;;;1.90;1.80;;;;;;;8.26;79.30;98542.05;214236;1276;140524;-66
2022/09/17 03:55:33;;;;;;;2.60;2.40;;;;;;;8.32;79.48;98531.89;214184;1276;140449;-66
2022/09/17 04:00:36;;;;;;;2.10;1.90;;;;;;;8.38;79.31;98529.91;213616;1276;141811;-65
2022/09/17 04:05:39;;;;;;;3.40;2.40;;;;;;;8.47;79.44;98526.98;213451;1276;141259;-66
2022/09/17 04:10:43;;;;;;;8.80;2.40;;;;;;;8.53;79.37;98533.42;213308;1276;141293;-66
2022/09/17 04:15:46;;;;;;;1.80;1.30;;;;;;;8.59;79.57;98538.72;213656;1276;141154;-66
2022/09/17 04:20:48;;;;;;;3.50;2.80;;;;;;;8.65;79.29;98538.31;213122;1275;140912;-65
2022/09/17 04:25:49;;;;;;;1.90;1.60;;;;;;;8.74;79.30;98541.38;212899;1276;143137;-65
2022/09/17 04:30:51;;;;;;;4.40;2.10;;;;;;;8.87;79.23;98543.55;212978;1274;141141;-66
2022/09/17 04:35:53;;;;;;;2.10;1.90;;;;;;;8.97;79.08;98549.86;213655;1276;140594;-64
2022/09/17 04:40:56;;;;;;;2.00;1.80;;;;;;;9.05;78.91;98544.09;213912;1276;139509;-65
2022/09/17 04:45:58;;;;;;;3.80;1.70;;;;;;;9.13;79.01;98548.95;214169;1276;141198;-66
2022/09/17 04:50:59;;;;;;;5.90;2.30;;;;;;;9.23;78.81;98545.50;215497;1276;139933;-67
2022/09/17 04:56:01;;;;;;;4.20;2.20;;;;;;;9.35;78.74;98547.72;214420;1275;139991;-65
2022/09/17 05:01:03;;;;;;;0.90;0.90;;;;;;;9.39;78.49;98553.92;213979;1276;140158;-66
2022/09/17 05:06:05;;;;;;;1.90;1.80;;;;;;;9.41;78.22;98557.30;214122;1276;140915;-66
2022/09/17 05:11:07;;;;;;;9.50;2.00;;;;;;;9.45;78.12;98552.55;216065;1275;141216;-67
2022/09/17 05:16:09;;;;;;;2.80;1.90;;;;;;;9.52;78.11;98553.77;215829;1276;141057;-66
2022/09/17 05:21:11;;;;;;;1.60;1.50;;;;;;;9.56;78.21;98552.48;214140;1277;153998;-66
2022/09/17 05:26:13;;;;;;;5.90;1.70;;;;;;;9.60;77.95;98550.02;213423;1276;143250;-66
2022/09/17 05:31:14;;;;;;;2.20;2.10;;;;;;;9.67;77.95;98553.73;212981;1276;141362;-64
2022/09/17 05:36:16;;;;;;;2.40;2.20;;;;;;;9.71;78.02;98554.12;214905;1275;141717;-66
2022/09/17 05:41:18;;;;;;;5.70;2.10;;;;;;;9.77;78.36;98548.89;214604;1275;140512;-66
2022/09/17 05:46:20;;;;;;;2.40;2.20;;;;;;;9.83;78.20;98548.48;213228;1276;140505;-65
2022/09/17 05:51:22;;;;;;;4.30;1.80;;;;;;;9.88;78.10;98553.94;213826;1276;140322;-66
2022/09/17 05:56:24;;;;;;;3.20;1.60;;;;;;;9.88;78.37;98547.81;214615;1276;140352;-65
2022/09/17 06:01:26;;;;;;;4.50;2.20;;;;;;;9.86;78.26;98543.34;213984;1275;139805;-66
2022/09/17 06:06:30;;;;;;;6.70;1.90;;;;;;;9.88;78.37;98539.45;213042;1276;140379;-65
2022/09/17 06:11:32;;;;;;;2.10;1.80;;;;;;;9.95;78.66;98536.94;213919;1276;140156;-65
2022/09/17 06:16:35;;;;;;;4.00;1.70;;;;;;;10.05;78.57;98538.33;213432;1276;141006;-66
2022/09/17 06:21:37;;;;;;;1.90;1.50;;;;;;;10.15;78.64;98542.45;213036;1276;221558;-65
2022/09/17 06:26:39;;;;;;;3.20;1.80;;;;;;;10.27;78.53;98540.02;213730;1276;140418;-65
2022/09/17 06:31:43;;;;;;;8.60;1.90;;;;;;;10.35;78.48;98540.42;213067;1276;139912;-66
2022/09/17 06:36:47;;;;;;;2.40;2.00;;;;;;;10.37;78.40;98539.69;212893;1276;139568;-65
2022/09/17 06:41:49;;;;;;;3.90;2.50;;;;;;;10.41;78.58;98539.20;214426;1276;140426;-67
2022/09/17 06:46:51;;;;;;;1.90;1.50;;;;;;;10.51;78.64;98539.28;214043;1276;140290;-65
2022/09/17 06:51:55;;;;;;;1.60;1.50;;;;;;;10.59;78.51;98541.66;213267;1276;230582;-65
2022/09/17 06:56:58;;;;;;;2.60;2.00;;;;;;;10.57;78.54;98542.60;214383;1276;141114;-66
2022/09/17 07:02:00;;;;;;;3.20;2.90;;;;;;;10.52;78.59;98546.53;215774;1275;139951;-67
2022/09/17 07:07:06;;;;;;;2.60;1.80;;;;;;;10.52;78.52;98555.16;215011;1276;231873;-67
2022/09/17 07:12:08;;;;;;;3.60;1.70;;;;;;;10.61;78.76;98560.48;215388;1277;140338;-67
2022/09/17 07:17:10;;;;;;;3.00;1.60;;;;;;;10.71;78.65;98561.55;213732;1276;140457;-66
2022/09/17 07:22:13;;;;;;;13.70;3.00;;;;;;;10.78;78.82;98566.94;215819;1275;140280;-67
2022/09/17 07:27:14;;;;;;;3.50;1.50;;;;;;;10.83;78.89;98573.09;215004;1277;140022;-67
2022/09/17 07:32:16;;;;;;;4.20;1.80;;;;;;;10.82;78.95;98578.58;215004;1276;140888;-67
2022/09/17 07:37:20;;;;;;;3.30;1.80;;;;;;;10.82;79.01;98584.11;214196;1276;140329;-67
2022/09/17 07:42:22;;;;;;;2.40;2.20;;;;;;;10.82;79.21;98584.76;213856;1276;140415;-66
2022/09/17 07:47:24;;;;;;;1.90;1.80;;;;;;;10.86;79.35;98577.78;214688;1276;140651;-66
2022/09/17 07:52:26;;;;;;;1.90;1.70;;;;;;;10.95;79.48;98580.89;214146;1277;140739;-66
2022/09/17 07:57:28;;;;;;;13.20;3.40;;;;;;;10.98;79.45;98589.44;214319;1276;140801;-66
2022/09/17 08:02:30;;;;;;;2.60;2.10;;;;;;;11.07;79.74;98587.23;214024;1276;142266;-66
2022/09/17 08:07:32;;;;;;;5.50;2.40;;;;;;;11.26;80.06;98589.50;213370;1276;140508;-66
2022/09/17 08:12:35;;;;;;;2.40;2.20;;;;;;;11.31;79.73;98603.10;213506;1275;140839;-66
2022/09/17 08:17:38;;;;;;;6.70;2.20;;;;;;;11.36;79.70;98605.55;213452;1276;142023;-67
2022/09/17 08:22:41;;;;;;;1.40;1.30;;;;;;;11.44;79.88;98603.84;213361;1275;142100;-67
2022/09/17 08:27:48;;;;;;;3.50;1.40;;;;;;;11.44;79.47;98608.17;213565;1276;161745;-66
2022/09/17 08:32:50;;;;;;;2.70;2.10;;;;;;;11.58;79.96;98612.16;214035;1275;140302;-66
2022/09/17 08:37:54;;;;;;;2.20;2.00;;;;;;;11.69;79.86;98616.89;212965;1276;139939;-67
2022/09/17 08:43:01;;;;;;;2.40;2.30;;;;;;;11.69;79.79;98620.31;213683;1276;140877;-67
2022/09/17 08:48:04;;;;;;;;;;;;;;;11.63;79.67;98621.82;213031;1276;140487;-66
2022/09/17 08:53:30;;;;;;;3.70;2.80;;;;;;;11.50;79.69;98618.20;214681;1276;126550;-65
2022/09/17 08:58:40;;;;;;;2.70;2.50;;;;;;;11.47;79.82;98615.00;213310;1276;141658;-66
2022/09/17 09:04:17;;;;;;;2.60;2.40;;;;;;;11.43;79.90;98616.65;213239;1276;140251;-66
2022/09/17 09:09:22;;;;;;;;;;;;;;;11.51;80.03;98625.09;215614;1275;141483;-67
2022/09/17 09:14:32;;;;;;;4.10;3.20;;;;;;;11.68;80.42;98627.69;214812;1276;128279;-67
2022/09/17 09:19:43;;;;;;;3.90;2.70;;;;;;;12.08;80.66;98618.55;215763;1276;141687;-66
2022/09/17 09:25:10;;;;;;;3.20;2.90;;;;;;;12.66;81.03;98622.14;215494;1276;140948;-66
2022/09/17 09:30:15;;;;;;;4.20;3.30;;;;;;;13.22;80.65;98626.14;213818;1276;141720;-66
2022/09/17 09:35:30;;;;;;;3.90;2.30;;;;;;;13.70;80.22;98617.52;214479;1276;237293;-67
2022/09/17 09:40:53;;;;;;;2.80;2.60;;;;;;;13.98;79.66;98608.62;214256;1276;140866;-66
2022/09/17 09:46:14;;;;;;;2.90;2.70;;;;;;;14.10;78.60;98606.39;213441;1276;139773;-66
2022/09/17 09:51:35;;;;;;;4.20;2.50;;;;;;;14.02;77.91;98616.14;213043;1276;139768;-67
2022/09/17 09:57:02;;;;;;;1.80;1.70;;;;;;;14.25;78.00;98631.52;212787;1276;1438301;-67
2022/09/17 10:02:04;;;;;;;1.80;1.70;;;;;;;14.22;76.93;98645.55;213602;1276;140623;-66
2022/09/17 10:07:09;;;;;;;3.30;2.60;;;;;;;13.96;76.69;98656.44;213484;1276;140690;-66
2022/09/17 10:12:12;;;;;;;2.50;2.30;;;;;;;13.88;76.58;98656.30;213411;1276;141257;-66
2022/09/17 10:17:21;;;;;;;2.40;2.30;;;;;;;13.84;76.82;98663.83;213176;1276;139883;-67
2022/09/17 10:22:29;;;;;;;2.30;2.20;;;;;;;13.88;76.69;98677.57;212818;1276;141613;-66
2022/09/17 10:27:32;;;;;;;2.20;2.10;;;;;;;13.78;76.47;98677.90;214132;1276;140929;-66
2022/09/17 10:32:35;;;;;;;2.20;2.10;;;;;;;13.72;76.42;98679.80;213051;1276;139860;-66
2022/09/17 10:37:44;;;;;;;1.50;1.40;;;;;;;13.70;76.38;98679.34;213539;1276;141556;-67
2022/09/17 10:42:47;;;;;;;2.70;2.10;;;;;;;13.63;76.40;98690.58;213459;1275;140112;-67
2022/09/17 10:47:51;;;;;;;2.10;2.00;;;;;;;13.65;76.30;98697.10;214083;1277;139840;-66
2022/09/17 10:52:58;;;;;;;2.80;2.60;;;;;;;13.60;75.85;98703.73;214206;1276;140775;-67
2022/09/17 10:58:06;;;;;;;3.80;2.70;;;;;;;13.46;75.76;98691.98;214751;1276;140284;-65
2022/09/17 11:03:43;;;;;;;2.70;2.50;;;;;;;13.43;76.05;98683.77;213558;1276;141600;-67
2022/09/17 11:08:57;;;;;;;5.30;2.70;;;;;;;13.43;75.66;98685.37;215036;1276;140674;-67
2022/09/17 11:14:11;;;;;;;2.10;2.00;;;;;;;13.41;75.98;98696.85;215915;1276;141331;-67
2022/09/17 11:19:31;;;;;;;4.00;2.80;;;;;;;13.45;75.63;98703.23;216043;1274;141580;-68
2022/09/17 11:25:15;;;;;;;2.70;2.50;;;;;;;13.45;75.59;98697.08;215612;1276;140797;-67
2022/09/17 11:30:39;;;;;;;8.70;3.00;;;;;;;13.52;75.98;98694.98;215220;1276;141430;-67
2022/09/17 11:35:58;;;;;;;3.70;3.40;;;;;;;13.74;75.76;98691.45;213256;1276;151610;-66
2022/09/17 11:41:07;;;;;;;3.30;3.00;;;;;;;14.00;75.55;98687.00;213959;1276;141584;-66
2022/09/17 11:46:16;;;;;;;3.20;3.00;;;;;;;14.00;75.38;98688.82;214690;1276;139902;-67
2022/09/17 11:51:37;;;;;;;3.40;3.20;;;;;;;14.02;75.47;98694.97;212895;1276;140629;-66
2022/09/17 11:56:53;;;;;;;6.20;3.60;;;;;;;14.03;75.58;98696.25;214870;1276;140374;-67
2022/09/17 12:02:01;;;;;;;4.80;3.60;;;;;;;14.06;75.46;98693.59;213959;1276;139739;-66
2022/09/17 12:07:32;;;;;;;3.40;3.00;;;;;;;14.23;75.64;98686.02;213953;1276;141098;-66
2022/09/17 12:13:02;;;;;;;3.90;3.40;;;;;;;14.48;75.41;98676.92;213687;1276;140588;-66
2022/09/17 12:18:31;;;;;;;5.60;4.90;;;;;;;14.44;75.10;98666.93;213310;1276;140600;-66
2022/09/17 12:23:49;;;;;;;4.50;4.10;;;;;;;14.31;75.08;98663.59;213157;1276;139778;-66
2022/09/17 12:28:52;;;;;;;5.20;4.40;;;;;;;14.44;75.42;98657.77;213153;1276;140575;-65
2022/09/17 12:34:20;;;;;;;4.30;4.00;;;;;;;14.65;75.25;98653.98;214236;1277;140930;-67
2022/09/17 12:39:31;;;;;;;4.80;4.30;;;;;;;14.79;75.45;98643.83;213711;1276;139307;-66
2022/09/17 12:44:49;;;;;;;4.90;4.10;;;;;;;14.84;75.12;98636.35;213756;1277;140057;-65
2022/09/17 12:50:05;;;;;;;5.30;4.80;;;;;;;14.98;75.14;98635.67;214990;1276;140324;-66
2022/09/17 12:55:18;;;;;;;3.20;2.90;;;;;;;15.24;74.80;98630.66;213567;1276;140107;-68
2022/09/17 13:00:21;;;;;;;4.80;4.10;;;;;;;15.43;74.30;98623.34;212993;1277;140199;-66
2022/09/17 13:05:45;;;;;;;4.20;3.90;;;;;;;15.52;73.94;98619.71;215223;1276;141323;-69
2022/09/17 13:10:52;;;;;;;5.20;4.70;;;;;;;15.40;73.36;98615.17;214294;1276;140228;-67
2022/09/17 13:16:13;;;;;;;4.50;4.10;;;;;;;15.27;73.45;98607.55;215892;1276;139992;-67
2022/09/17 13:21:54;;;;;;;4.50;3.80;;;;;;;15.48;73.47;98605.92;215081;1276;208054;-68
2022/09/17 13:27:00;;;;;;;4.30;3.90;;;;;;;15.66;73.53;98602.73;215373;1276;140542;-68
2022/09/17 13:32:03;;;;;;;4.00;3.70;;;;;;;16.08;73.52;98602.41;214817;1276;139642;-67
2022/09/17 13:37:19;;;;;;;5.80;4.40;;;;;;;16.21;72.42;98609.42;214483;1276;141210;-68
2022/09/17 13:42:47;;;;;;;5.30;4.30;;;;;;;16.08;71.68;98605.64;213522;1277;140964;-65
2022/09/17 13:47:52;;;;;;;5.30;3.60;;;;;;;15.96;71.87;98605.29;213744;1276;141607;-67
2022/09/17 13:53:16;;;;;;;6.20;4.90;;;;;;;15.89;71.76;98603.95;213650;1276;140462;-68
2022/09/17 13:58:19;;;;;;;3.60;3.30;;;;;;;15.76;71.79;98605.20;213473;1277;140365;-67
2022/09/17 14:03:35;;;;;;;4.40;4.10;;;;;;;15.65;71.60;98604.69;212956;1277;160212;-68
2022/09/17 14:08:44;;;;;;;4.20;3.90;;;;;;;15.58;71.70;98598.37;213633;1276;141635;-67
2022/09/17 14:13:56;;;;;;;4.00;3.20;;;;;;;15.58;71.83;98593.16;212673;1276;142742;-66
2022/09/17 14:19:04;;;;;;;3.30;3.00;;;;;;;15.59;71.86;98593.90;213629;1277;140176;-65
2022/09/17 14:24:36;;;;;;;4.40;3.60;;;;;;;15.60;71.66;98597.45;214149;1276;142227;-67
2022/09/17 14:30:01;;;;;;;4.80;3.80;;;;;;;15.54;71.30;98612.11;213641;1277;141974;-67
2022/09/17 14:35:15;;;;;;;4.60;3.20;;;;;;;15.53;71.34;98606.27;214358;1277;141622;-65
2022/09/17 14:40:24;;;;;;;2.60;2.20;;;;;;;15.49;71.19;98609.83;214074;1277;141962;-66
2022/09/17 14:45:31;;;;;;;5.00;2.70;;;;;;;15.35;71.03;98609.95;213178;1277;141696;-67
2022/09/17 14:50:34;;;;;;;;;;;;;;;15.27;71.24;98603.30;214415;1277;221884;-66
2022/09/17 14:55:41;;;;;;;2.90;2.60;;;;;;;15.20;71.34;98594.13;214119;1276;127524;-67
2022/09/17 15:00:50;;;;;;;2.80;2.10;;;;;;;15.18;71.28;98583.05;215408;1277;139968;-67
2022/09/17 15:05:54;;;;;;;3.00;2.70;;;;;;;15.08;70.98;98569.49;215470;1277;139979;-67
2022/09/17 15:10:57;;;;;;;4.70;2.50;;;;;;;14.99;71.11;98560.73;215885;1276;140346;-67
2022/09/17 15:16:21;;;;;;;4.80;2.70;;;;;;;14.96;71.18;98556.07;215533;1276;140544;-66
2022/09/17 15:21:42;;;;;;;2.50;2.30;;;;;;;14.96;71.29;98570.12;215599;1276;140376;-66
2022/09/17 15:26:48;;;;;;;3.20;2.40;;;;;;;14.84;71.26;98573.56;214886;1276;139755;-66
2022/09/17 15:31:51;;;;;;;2.20;2.10;;;;;;;14.86;71.51;98574.30;213842;1277;141159;-66
2022/09/17 15:37:04;;;;;;;5.60;3.30;;;;;;;14.75;71.39;98593.02;213299;1277;141073;-65
2022/09/17 15:42:30;;;;;;;3.50;3.20;;;;;;;14.67;71.83;98600.15;213862;1277;140409;-66
2022/09/17 15:47:54;;;;;;;9.00;3.40;;;;;;;14.58;71.65;98603.71;214186;1276;140229;-66
2022/09/17 15:53:09;;;;;;;4.50;3.30;;;;;;;14.52;71.93;98603.30;213412;1277;141172;-68
2022/09/17 15:58:25;;;;;;;2.70;2.50;;;;;;;14.45;71.92;98591.36;213398;1277;141866;-65
2022/09/17 16:03:37;;;;;;;4.50;3.50;;;;;;;14.35;71.97;98580.38;213157;1277;141720;-64
2022/09/17 16:08:41;;;;;;;7.60;5.20;;;;;;;14.33;72.03;98578.36;214093;1276;141384;-66
2022/09/17 16:13:48;;;;;;;4.70;4.10;;;;;;;14.28;72.28;98593.33;213972;1277;141122;-66
2022/09/17 16:18:51;;;;;;;6.80;3.30;;;;;;;14.16;72.32;98603.21;213511;1277;140968;-66
2022/09/17 16:23:56;;;;;;;10.80;3.70;;;;;;;14.13;72.79;98606.20;213790;1276;142070;-66
2022/09/17 16:29:09;;;;;;;5.30;4.00;;;;;;;14.07;72.83;98610.05;213845;1276;141451;-70
2022/09/17 16:34:12;;;;;;;3.60;3.30;;;;;;;14.06;72.88;98617.70;214186;1276;141539;-65
2022/09/17 16:39:15;;;;;;;4.00;3.70;;;;;;;14.00;73.00;98623.88;214375;1276;140392;-66
2022/09/17 16:44:19;;;;;;;4.60;3.30;;;;;;;13.88;72.86;98628.86;213813;1276;140613;-66
2022/09/17 16:49:22;;;;;;;8.80;4.20;;;;;;;13.74;73.02;98623.16;214172;1276;150153;-69
2022/09/17 16:54:24;;;;;;;6.40;3.90;;;;;;;13.66;73.23;98620.39;213253;1276;142332;-69
2022/09/17 16:59:26;;;;;;;8.60;4.10;;;;;;;13.62;73.33;98616.95;214472;1276;139983;-69
2022/09/17 17:04:28;;;;;;;6.00;3.50;;;;;;;13.46;73.21;98615.95;214556;1276;140831;-67
2022/09/17 17:09:30;;;;;;;4.60;3.60;;;;;;;13.34;73.80;98621.47;215889;1276;140244;-67
2022/09/17 17:14:32;;;;;;;5.70;4.50;;;;;;;13.30;73.69;98626.58;215688;1276;141690;-65
2022/09/17 17:19:35;;;;;;;6.70;4.10;;;;;;;13.28;73.89;98629.31;215757;1276;141438;-65
2022/09/17 17:24:37;;;;;;;8.70;4.10;;;;;;;13.27;74.09;98630.30;213094;1276;141002;-65
2022/09/17 17:29:39;;;;;;;4.70;4.10;;;;;;;13.25;74.26;98634.96;214907;1276;142892;-66
2022/09/17 17:34:41;;;;;;;7.10;4.50;;;;;;;13.22;74.52;98636.21;213602;1276;140778;-67
2022/09/17 17:39:43;;;;;;;7.40;6.20;;;;;;;13.24;74.45;98635.89;213499;1276;142029;-66
2022/09/17 17:44:46;;;;;;;6.80;5.50;;;;;;;13.22;74.82;98641.35;213448;1276;141391;-68
2022/09/17 17:49:47;;;;;;;10.70;5.40;;;;;;;13.19;75.11;98641.52;213215;1276;139458;-68
2022/09/17 17:54:49;;;;;;;6.10;4.50;;;;;;;13.13;75.03;98636.91;213222;1276;140790;-68
2022/09/17 17:59:51;;;;;;;5.40;3.90;;;;;;;13.06;75.09;98635.23;213800;1276;140100;-65
2022/09/17 18:04:53;;;;;;;3.40;3.20;;;;;;;13.02;75.38;98636.54;212917;1276;140356;-66
2022/09/17 18:09:55;;;;;;;4.20;3.90;;;;;;;12.96;75.10;98636.77;214133;1276;142158;-65
2022/09/17 18:14:57;;;;;;;3.90;3.40;;;;;;;12.84;75.25;98644.50;212655;1276;139805;-66
2022/09/17 18:20:00;;;;;;;6.70;3.70;;;;;;;12.72;75.35;98649.59;213949;1277;140224;-67
2022/09/17 18:25:03;;;;;;;5.90;3.90;;;;;;;12.61;75.67;98653.91;212985;1276;139928;-66
2022/09/17 18:30:09;;;;;;;5.90;4.20;;;;;;;12.63;76.08;98653.27;214583;1277;141391;-67
2022/09/17 18:35:11;;;;;;;7.30;4.20;;;;;;;12.66;75.83;98649.45;214349;1276;141749;-67
2022/09/17 18:40:13;;;;;;;3.90;3.60;;;;;;;12.61;75.85;98649.52;214056;1277;141963;-66
2022/09/17 18:45:17;;;;;;;5.00;3.80;;;;;;;12.55;76.13;98647.46;214779;1276;140027;-69
2022/09/17 18:50:19;;;;;;;5.30;3.50;;;;;;;12.52;76.01;98648.13;213922;1276;141722;-67
2022/09/17 18:55:22;;;;;;;3.30;2.80;;;;;;;12.45;75.74;98646.98;213249;1276;141896;-67
2022/09/17 19:00:24;;;;;;;3.50;3.20;;;;;;;12.37;75.84;98639.69;213979;1276;141682;-65
2022/09/17 19:05:28;;;;;;;2.90;2.40;;;;;;;12.27;75.88;98637.95;215920;1276;140573;-66
2022/09/17 19:10:31;;;;;;;4.50;2.10;;;;;;;12.16;75.70;98628.44;214296;1276;142593;-65
2022/09/17 19:15:34;;;;;;;3.20;2.90;;;;;;;12.07;75.68;98627.76;214019;1276;143225;-65
2022/09/17 19:20:37;;;;;;;3.40;2.30;;;;;;;12.04;75.91;98625.57;215593;1276;142507;-67
2022/09/17 19:25:39;;;;;;;2.70;2.50;;;;;;;11.98;75.90;98624.23;215445;1276;140442;-66
2022/09/17 19:30:42;;;;;;;2.70;2.00;;;;;;;11.93;76.10;98623.52;215133;1276;140300;-66
2022/09/17 19:35:44;;;;;;;3.30;2.30;;;;;;;11.87;75.86;98619.95;213239;1276;142905;-66
2022/09/17 19:40:55;;;;;;;3.90;3.00;;;;;;;11.76;75.72;98616.37;213415;1276;143142;-65
2022/09/17 19:46:05;;;;;;;2.70;2.00;;;;;;;11.70;75.94;98619.23;214518;1276;141305;-66
2022/09/17 19:51:08;;;;;;;3.20;2.50;;;;;;;11.56;75.95;98623.27;213643;1276;140312;-65
2022/09/17 19:56:17;;;;;;;4.30;2.70;;;;;;;11.47;76.16;98619.85;214280;1276;141146;-66
2022/09/17 20:01:20;;;;;;;4.00;2.40;;;;;;;11.41;76.21;98619.86;213064;1276;141220;-67
2022/09/17 20:06:22;;;;;;;4.30;2.70;;;;;;;11.39;76.56;98622.20;212858;1276;141573;-64
2022/09/17 20:11:25;;;;;;;3.40;2.10;;;;;;;11.34;76.67;98622.79;213314;1276;141860;-66
2022/09/17 20:16:28;;;;;;;6.80;3.30;;;;;;;11.30;77.11;98625.20;212992;1276;151828;-65
2022/09/17 20:21:31;;;;;;;4.10;3.10;;;;;;;11.24;76.98;98627.33;213191;1276;141495;-66
2022/09/17 20:26:34;;;;;;;3.30;2.60;;;;;;;11.19;77.47;98633.03;213886;1276;140820;-66
2022/09/17 20:31:36;;;;;;;4.70;3.10;;;;;;;11.27;77.73;98634.54;212893;1276;140989;-66
2022/09/17 20:36:38;;;;;;;6.50;3.60;;;;;;;11.32;78.04;98635.85;212702;1276;142179;-68
2022/09/17 20:41:41;;;;;;;4.70;3.40;;;;;;;11.37;78.15;98627.31;213626;1277;140288;-67
2022/09/17 20:46:44;;;;;;;10.10;4.50;;;;;;;11.45;78.53;98629.04;214309;1276;140519;-69
2022/09/17 20:51:46;;;;;;;5.80;4.60;;;;;;;11.48;78.31;98629.84;213077;1276;141924;-69
2022/09/17 20:56:50;;;;;;;11.10;5.70;;;;;;;11.52;78.49;98635.33;213423;1276;141181;-68
2022/09/17 21:01:54;;;;;;;11.30;4.30;;;;;;;11.54;78.64;98637.53;212699;1276;143242;-65
2022/09/17 21:06:57;;;;;;;9.80;4.70;;;;;;;11.57;78.86;98641.01;213344;1276;140521;-67
2022/09/17 21:11:58;;;;;;;10.80;4.30;;;;;;;11.55;78.68;98644.15;215517;1275;140979;-70
2022/09/17 21:17:01;;;;;;;6.30;4.10;;;;;;;11.57;78.75;98640.14;215813;1276;140622;-69
2022/09/17 21:22:04;;;;;;;8.10;4.20;;;;;;;11.61;78.83;98641.16;214380;1276;141726;-66
2022/09/17 21:27:08;;;;;;;8.20;4.70;;;;;;;11.67;79.07;98645.41;213699;1276;211900;-67
2022/09/17 21:32:10;;;;;;;14.20;5.30;;;;;;;11.67;79.10;98643.38;213223;1276;141747;-65
2022/09/17 21:37:12;;;;;;;6.70;4.10;;;;;;;11.67;79.21;98647.38;214920;1276;141168;-66
2022/09/17 21:42:16;;;;;;;9.90;4.60;;;;;;;11.65;79.07;98645.94;214773;1276;142353;-66
2022/09/17 21:47:18;;;;;;;8.20;3.80;;;;;;;11.64;79.09;98643.21;213071;1276;141776;-66
2022/09/17 21:52:21;;;;;;;10.70;3.90;;;;;;;11.63;79.01;98642.95;213995;1276;141726;-67
2022/09/17 21:57:27;;;;;;;8.70;3.70;;;;;;;11.63;79.14;98643.33;211843;1276;1693784;-66
2022/09/17 22:02:30;;;;;;;8.40;3.30;;;;;;;11.62;79.07;98648.61;213414;1276;141019;-66
2022/09/17 22:07:33;;;;;;;8.00;3.80;;;;;;;11.59;79.27;98643.52;213934;1276;141210;-67
2022/09/17 22:12:36;;;;;;;5.80;3.60;;;;;;;11.61;79.13;98642.15;213184;1276;141038;-64
2022/09/17 22:17:39;;;;;;;5.10;3.80;;;;;;;11.59;79.08;98639.56;213326;1276;141100;-66
2022/09/17 22:22:46;;;;;;;5.70;2.80;;;;;;;11.56;78.81;98634.01;213642;1277;221773;-65
2022/09/17 22:27:49;;;;;;;7.00;2.80;;;;;;;11.46;78.77;98633.46;212852;1276;139546;-64
2022/09/17 22:33:12;;;;;;;5.70;3.10;;;;;;;11.38;78.68;98629.98;214477;1276;140035;-65
2022/09/17 22:38:14;;;;;;;6.80;3.80;;;;;;;11.37;78.85;98625.66;213940;1276;140616;-65
2022/09/17 22:43:17;;;;;;;10.10;4.40;;;;;;;11.39;78.72;98622.46;213660;1276;139994;-65
2022/09/17 22:48:20;;;;;;;4.70;3.40;;;;;;;11.34;78.80;98616.11;213685;1276;142197;-65
2022/09/17 22:53:24;;;;;;;4.70;2.50;;;;;;;11.24;78.73;98609.35;213058;1276;140027;-65
2022/09/17 22:58:27;;;;;;;8.90;3.30;;;;;;;11.19;78.94;98609.61;215232;1276;141727;-66
2022/09/17 23:03:31;;;;;;;6.40;3.60;;;;;;;11.18;78.92;98608.48;214178;1276;140423;-66
2022/09/17 23:08:34;;;;;;;7.50;3.50;;;;;;;11.20;79.05;98602.52;215521;1276;140792;-66
2022/09/17 23:13:37;;;;;;;9.40;4.20;;;;;;;11.17;79.14;98597.44;215722;1276;141629;-66
2022/09/17 23:18:39;;;;;;;7.00;3.00;;;;;;;11.21;79.20;98594.57;215772;1276;139399;-69
2022/09/17 23:23:44;;;;;;;12.60;3.10;;;;;;;11.23;79.15;98595.95;215683;1276;140573;-68
2022/09/17 23:28:47;;;;;;;5.70;3.20;;;;;;;11.26;79.07;98599.53;214295;1276;234090;-69
2022/09/17 23:33:50;;;;;;;8.80;3.20;;;;;;;11.26;78.86;98597.83;214299;1276;140492;-67
2022/09/17 23:38:55;;;;;;;9.70;3.20;;;;;;;11.25;78.99;98596.81;213786;1276;139459;-68